createdAt,value
2018-06-22T00:02:16.967Z,101640.00
2018-06-22T00:05:27.782Z,101642.00
2018-06-22T00:08:38.516Z,101630.00
2018-06-22T00:11:50.413Z,101640.00
2018-06-22T00:15:01.213Z,101645.00
2018-06-22T00:18:12.970Z,101628.00
2018-06-22T00:21:24.538Z,101632.00
2018-06-22T00:24:35.187Z,101619.00
2018-06-22T00:27:45.963Z,101612.00
2018-06-22T00:30:56.652Z,101614.00
2018-06-22T00:34:07.617Z,101616.00
2018-06-22T00:37:17.912Z,101613.00
2018-06-22T00:40:28.719Z,101611.00
2018-06-22T00:43:38.973Z,101615.00
2018-06-22T00:46:49.891Z,101592.00
2018-06-22T00:50:00.792Z,101601.00
2018-06-22T00:53:28.374Z,101599.00
2018-06-22T00:56:38.672Z,101599.00
2018-06-22T00:59:49.668Z,101595.00
2018-06-22T01:03:00.327Z,101598.00
2018-06-22T01:06:11.317Z,101583.00
2018-06-22T01:09:22.224Z,101584.00
2018-06-22T01:12:33.022Z,101578.00
2018-06-22T01:15:43.687Z,101577.00
2018-06-22T01:18:55.804Z,101570.00
2018-06-22T01:22:07.409Z,101574.00
2018-06-22T01:25:18.904Z,101570.00
2018-06-22T01:28:29.969Z,101565.00
2018-06-22T01:31:41.031Z,101566.00
2018-06-22T01:34:51.565Z,101575.00
2018-06-22T01:38:02.569Z,101557.00
2018-06-22T01:41:13.744Z,101554.00
2018-06-22T01:44:29.489Z,101550.00
2018-06-22T01:47:40.216Z,101553.00
2018-06-22T01:50:51.375Z,101555.00
2018-06-22T01:54:02.446Z,101551.00
2018-06-22T01:57:13.220Z,101545.00
2018-06-22T02:00:23.753Z,101534.00
2018-06-22T02:03:34.484Z,101545.00
2018-06-22T02:06:45.315Z,101540.00
2018-06-22T02:09:55.976Z,101531.00
2018-06-22T02:13:06.712Z,101542.00
2018-06-22T02:16:18.936Z,101537.00
2018-06-22T02:19:30.016Z,101538.00
2018-06-22T02:22:40.921Z,101539.00
2018-06-22T02:25:51.760Z,101540.00
2018-06-22T02:29:02.414Z,101527.00
2018-06-22T02:32:12.927Z,101534.00
2018-06-22T02:35:23.156Z,101522.00
2018-06-22T02:38:33.744Z,101521.00
2018-06-22T02:41:44.155Z,101521.00
2018-06-22T02:44:54.918Z,101523.00
2018-06-22T02:48:07.437Z,101517.00
2018-06-22T02:51:18.676Z,101524.00
2018-06-22T02:54:29.416Z,101528.00
2018-06-22T02:57:40.072Z,101523.00
2018-06-22T03:00:51.091Z,101512.00
2018-06-22T03:04:01.516Z,101509.00
2018-06-22T03:07:12.124Z,101517.00
2018-06-22T03:10:22.363Z,101509.00
2018-06-22T03:13:32.775Z,101506.00
2018-06-22T03:16:43.584Z,101508.00
2018-06-22T03:19:53.924Z,101506.00
2018-06-22T03:23:04.550Z,101517.00
2018-06-22T03:26:15.376Z,101505.00
2018-06-22T03:29:25.965Z,101510.00
2018-06-22T03:32:36.824Z,101502.00
2018-06-22T03:35:47.313Z,101505.00
2018-06-22T03:38:58.189Z,101500.00
2018-06-22T03:42:08.808Z,101503.00
2018-06-22T03:45:19.581Z,101504.00
2018-06-22T03:48:30.384Z,101498.00
2018-06-22T03:51:41.044Z,101496.00
2018-06-22T03:54:51.732Z,101493.00
2018-06-22T03:58:02.272Z,101480.00
2018-06-22T04:01:13.041Z,101482.00
2018-06-22T04:04:24.355Z,101473.00
2018-06-22T04:07:35.053Z,101478.00
2018-06-22T04:10:46.214Z,101478.00
2018-06-22T04:13:56.896Z,101471.00
2018-06-22T04:17:07.286Z,101474.00
2018-06-22T04:20:18.520Z,101473.00
2018-06-22T04:23:29.075Z,101473.00
2018-06-22T04:26:39.791Z,101481.00
2018-06-22T04:29:51.440Z,101470.00
2018-06-22T04:33:01.903Z,101489.00
2018-06-22T04:36:12.774Z,101499.00
2018-06-22T04:39:25.643Z,101496.00
2018-06-22T04:42:36.485Z,101497.00
2018-06-22T04:45:47.463Z,101505.00
2018-06-22T04:48:58.053Z,101513.00
2018-06-22T04:52:08.515Z,101502.00
2018-06-22T04:55:19.160Z,101512.00
2018-06-22T04:58:30.046Z,101515.00
2018-06-22T05:01:41.089Z,101522.00
2018-06-22T05:04:54.021Z,101518.00
2018-06-22T05:08:05.034Z,101525.00
2018-06-22T05:11:15.724Z,101531.00
2018-06-22T05:14:28.409Z,101520.00
2018-06-22T05:17:39.699Z,101511.00
2018-06-22T05:20:50.839Z,101532.00
2018-06-22T05:24:01.884Z,101535.00
2018-06-22T05:27:12.312Z,101543.00
2018-06-22T05:30:23.218Z,101551.00
2018-06-22T05:33:33.796Z,101552.00
2018-06-22T05:36:47.740Z,101543.00
2018-06-22T05:39:59.146Z,101548.00
2018-06-22T05:43:09.688Z,101548.00
2018-06-22T05:46:20.087Z,101557.00
2018-06-22T05:49:30.533Z,101553.00
2018-06-22T05:52:41.189Z,101559.00
2018-06-22T05:55:51.964Z,101553.00
2018-06-22T05:59:02.312Z,101540.00
2018-06-22T06:02:13.015Z,101562.00
2018-06-22T06:05:23.475Z,101557.00
2018-06-22T06:08:33.775Z,101550.00
2018-06-22T06:11:49.272Z,101567.00
2018-06-22T06:14:59.871Z,101568.00
2018-06-22T06:18:10.595Z,101575.00
2018-06-22T06:21:21.304Z,101583.00
2018-06-22T06:24:31.891Z,101581.00
2018-06-22T06:27:42.501Z,101588.00
2018-06-22T06:30:54.223Z,101587.00
2018-06-22T06:34:04.708Z,101593.00
2018-06-22T06:37:15.030Z,101578.00
2018-06-22T06:40:25.863Z,101589.00
2018-06-22T06:43:36.302Z,101590.00
2018-06-22T06:46:46.732Z,101600.00
2018-06-22T06:50:01.632Z,101605.00
2018-06-22T06:53:12.691Z,101607.00
2018-06-22T06:56:24.586Z,101606.00
2018-06-22T06:59:35.704Z,101594.00
2018-06-22T07:02:46.340Z,101607.00
2018-06-22T07:05:56.920Z,101602.00
2018-06-22T07:09:09.111Z,101604.00
2018-06-22T07:12:19.862Z,101604.00
2018-06-22T07:15:35.904Z,101607.00
2018-06-22T07:18:48.016Z,101609.00
2018-06-22T07:21:59.576Z,101611.00
2018-06-22T07:25:11.621Z,101609.00
2018-06-22T07:28:22.029Z,101614.00
2018-06-22T07:31:33.450Z,101616.00
2018-06-22T07:34:44.338Z,101618.00
2018-06-22T07:37:55.199Z,101620.00
2018-06-22T07:41:06.032Z,101614.00
2018-06-22T07:44:16.641Z,101618.00
2018-06-22T07:47:27.344Z,101618.00
2018-06-22T07:50:39.003Z,101621.00
2018-06-22T07:53:49.746Z,101613.00
2018-06-22T07:56:59.996Z,101622.00
2018-06-22T08:00:10.253Z,101618.00
2018-06-22T08:03:20.917Z,101625.00
2018-06-22T08:06:31.441Z,101621.00
2018-06-22T08:09:41.909Z,101621.00
2018-06-22T08:12:52.523Z,101622.00
2018-06-22T08:16:03.033Z,101628.00
2018-06-22T08:19:13.468Z,101624.00
2018-06-22T08:22:24.165Z,101612.00
2018-06-22T08:25:34.564Z,101619.00
2018-06-22T08:28:44.990Z,101627.00
2018-06-22T08:31:55.419Z,101629.00
2018-06-22T08:35:06.092Z,101649.00
2018-06-22T08:38:16.849Z,101654.00
2018-06-22T08:41:27.808Z,101652.00
2018-06-22T08:44:38.336Z,101654.00
2018-06-22T08:47:49.068Z,101649.00
2018-06-22T08:50:59.712Z,101643.00
2018-06-22T08:54:10.469Z,101645.00
2018-06-22T08:57:20.924Z,101651.00
2018-06-22T09:00:31.703Z,101648.00
2018-06-22T09:03:42.263Z,101638.00
2018-06-22T09:06:52.899Z,101650.00
2018-06-22T09:10:03.877Z,101642.00
2018-06-22T09:13:14.276Z,101659.00
2018-06-22T09:16:24.529Z,101654.00
2018-06-22T09:19:35.327Z,101650.00
2018-06-22T09:22:45.963Z,101674.00
2018-06-22T09:25:56.427Z,101673.00
2018-06-22T09:29:07.156Z,101679.00
2018-06-22T09:32:18.148Z,101714.00
2018-06-22T09:35:28.912Z,101704.00
2018-06-22T09:38:39.247Z,101700.00
2018-06-22T09:41:50.068Z,101709.00
2018-06-22T09:45:00.396Z,101710.00
2018-06-22T09:48:10.873Z,101700.00
2018-06-22T09:51:21.623Z,101703.00
2018-06-22T09:54:32.425Z,101695.00
2018-06-22T09:57:43.168Z,101700.00
2018-06-22T10:00:54.088Z,101694.00
2018-06-22T10:04:04.957Z,101697.00
2018-06-22T10:07:15.778Z,101694.00
2018-06-22T10:10:26.400Z,101700.00
2018-06-22T10:13:37.280Z,101682.00
2018-06-22T10:16:48.287Z,101690.00
2018-06-22T10:19:58.779Z,101684.00
2018-06-22T10:23:09.501Z,101693.00
2018-06-22T10:26:19.955Z,101700.00
2018-06-22T10:29:30.361Z,101693.00
2018-06-22T10:32:40.724Z,101675.00
2018-06-22T10:35:51.353Z,101696.00
2018-06-22T10:39:01.992Z,101688.00
2018-06-22T10:42:12.703Z,101687.00
2018-06-22T10:45:23.446Z,101697.00
2018-06-22T10:48:33.679Z,101694.00
2018-06-22T10:51:44.002Z,101688.00
2018-06-22T10:54:54.419Z,101691.00
2018-06-22T10:58:05.783Z,101690.00
2018-06-22T11:01:16.408Z,101699.00
2018-06-22T11:04:27.080Z,101704.00
2018-06-22T11:07:37.689Z,101704.00
2018-06-22T11:10:48.375Z,101704.00
2018-06-22T11:13:59.062Z,101711.00
2018-06-22T11:17:09.557Z,101712.00
2018-06-22T11:20:20.124Z,101709.00
2018-06-22T11:23:30.407Z,101709.00
2018-06-22T11:26:41.114Z,101721.00
2018-06-22T11:29:51.971Z,101728.00
2018-06-22T11:33:02.752Z,101754.00
2018-06-22T11:36:13.118Z,101781.00
2018-06-22T11:39:23.576Z,101792.00
2018-06-22T11:42:34.083Z,101795.00
2018-06-22T11:45:44.468Z,101789.00
2018-06-22T11:48:56.255Z,101788.00
2018-06-22T11:52:06.961Z,101787.00
2018-06-22T11:55:17.291Z,101791.00
2018-06-22T11:58:27.742Z,101783.00
2018-06-22T12:01:38.058Z,101780.00
2018-06-22T12:04:48.407Z,101775.00
2018-06-22T12:07:58.980Z,101776.00
2018-06-22T12:11:09.704Z,101770.00
2018-06-22T12:14:20.183Z,101777.00
2018-06-22T12:17:30.476Z,101777.00
2018-06-22T12:20:41.268Z,101776.00
2018-06-22T12:23:51.807Z,101793.00
2018-06-22T12:27:02.540Z,101798.00
2018-06-22T12:30:13.151Z,101791.00
2018-06-22T12:33:24.740Z,101774.00
2018-06-22T12:36:36.300Z,101761.00
2018-06-22T12:39:47.065Z,101762.00
2018-06-22T12:42:57.565Z,101755.00
2018-06-22T12:46:08.164Z,101773.00
2018-06-22T12:49:18.679Z,101785.00
2018-06-22T12:52:29.092Z,101800.00
2018-06-22T12:55:39.584Z,101796.00
2018-06-22T12:58:50.479Z,101791.00
2018-06-22T13:02:01.939Z,101779.00
2018-06-22T13:05:12.701Z,101775.00
2018-06-22T13:08:23.346Z,101766.00
2018-06-22T13:11:34.115Z,101774.00
2018-06-22T13:14:44.924Z,101792.00
2018-06-22T13:17:55.814Z,101791.00
2018-06-22T13:21:06.544Z,101816.00
2018-06-22T13:24:17.160Z,101816.00
2018-06-22T13:27:27.926Z,101817.00
2018-06-22T13:30:38.278Z,101808.00
2018-06-22T13:33:49.127Z,101805.00
2018-06-22T13:36:59.722Z,101809.00
2018-06-22T13:40:10.289Z,101810.00
2018-06-22T13:43:20.873Z,101811.00
2018-06-22T13:46:31.251Z,101802.00
2018-06-22T13:49:41.722Z,101798.00
2018-06-22T13:52:52.476Z,101795.00
2018-06-22T13:56:02.873Z,101781.00
2018-06-22T13:59:13.173Z,101778.00
2018-06-22T14:02:23.630Z,101768.00
2018-06-22T14:05:39.600Z,101787.00
2018-06-22T14:08:50.513Z,101801.00
2018-06-22T14:12:01.059Z,101817.00
2018-06-22T14:15:11.775Z,101831.00
2018-06-22T14:18:22.345Z,101830.00
2018-06-22T14:21:33.109Z,101831.00
2018-06-22T14:24:43.505Z,101829.00
2018-06-22T14:27:54.121Z,101830.00
2018-06-22T14:31:04.525Z,101828.00
2018-06-22T14:34:15.213Z,101830.00
2018-06-22T14:37:25.684Z,101807.00
2018-06-22T14:40:36.211Z,101844.00
2018-06-22T14:43:46.965Z,101842.00
2018-06-22T14:46:57.752Z,101830.00
2018-06-22T14:50:12.457Z,101817.00
2018-06-22T14:53:28.529Z,101823.00
2018-06-22T14:56:44.076Z,101833.00
2018-06-22T15:00:04.626Z,101826.00
2018-06-22T15:03:20.628Z,101835.00
2018-06-22T15:06:37.268Z,101822.00
2018-06-22T15:09:48.314Z,101833.00
2018-06-22T15:13:05.149Z,101831.00
2018-06-22T15:16:20.013Z,101820.00
2018-06-22T15:19:30.587Z,101812.00
2018-06-22T15:23:14.523Z,101817.00
2018-06-22T15:26:27.084Z,101822.00
2018-06-22T15:29:37.888Z,101843.00
2018-06-22T15:32:51.967Z,101846.00
2018-06-22T15:36:09.625Z,101849.00
2018-06-22T15:39:26.856Z,101835.00
2018-06-22T15:42:44.209Z,101838.00
2018-06-22T15:46:01.322Z,101842.00
2018-06-22T15:49:19.826Z,101827.00
2018-06-22T15:52:38.253Z,101820.00
2018-06-22T15:55:52.057Z,101817.00
2018-06-22T15:59:04.731Z,101828.00
2018-06-22T16:02:20.633Z,101834.00
2018-06-22T16:05:31.366Z,101822.00
2018-06-22T16:08:47.107Z,101818.00
2018-06-22T16:12:06.320Z,101839.00
2018-06-22T16:15:22.328Z,101847.00
2018-06-22T16:18:40.765Z,101856.00
2018-06-22T16:21:59.286Z,101853.00
2018-06-22T16:25:16.310Z,101867.00
2018-06-22T16:28:31.429Z,101866.00
2018-06-22T16:31:41.736Z,101867.00
2018-06-22T16:34:54.468Z,101857.00
2018-06-22T16:38:05.171Z,101844.00
2018-06-22T16:41:17.566Z,101851.00
2018-06-22T16:44:30.609Z,101862.00
2018-06-22T16:47:44.106Z,101860.00
2018-06-22T16:50:55.168Z,101880.00
2018-06-22T16:54:08.836Z,101866.00
2018-06-22T16:57:20.780Z,101874.00
2018-06-22T17:00:33.746Z,101859.00
2018-06-22T17:03:44.732Z,101864.00
2018-06-22T17:07:58.993Z,101871.00
2018-06-22T17:11:15.380Z,101871.00
2018-06-22T17:14:31.447Z,101870.00
2018-06-22T17:18:48.930Z,101877.00
2018-06-22T17:22:00.413Z,101885.00
2018-06-22T17:25:11.083Z,101884.00
2018-06-22T17:28:21.496Z,101886.00
2018-06-22T17:31:40.708Z,101883.00
2018-06-22T17:34:52.596Z,101878.00
2018-06-22T17:38:04.279Z,101885.00
2018-06-22T17:41:17.844Z,101896.00
2018-06-22T17:44:28.636Z,101904.00
2018-06-22T17:47:39.474Z,101907.00
2018-06-22T17:50:50.152Z,101904.00
2018-06-22T17:54:04.608Z,101905.00
2018-06-22T17:57:18.430Z,101914.00
2018-06-22T18:00:35.861Z,101913.00
2018-06-22T18:03:52.172Z,101917.00
2018-06-22T18:07:10.445Z,101904.00
2018-06-22T18:10:30.539Z,101907.00
2018-06-22T18:13:41.428Z,101917.00
2018-06-22T18:16:54.145Z,101927.00
2018-06-22T18:20:06.565Z,101924.00
2018-06-22T18:23:18.084Z,101928.00
2018-06-22T18:26:29.820Z,101935.00
2018-06-22T18:29:40.274Z,101941.00
2018-06-22T18:32:51.632Z,101940.00
2018-06-22T18:36:02.515Z,101942.00
2018-06-22T18:39:18.676Z,101946.00
2018-06-22T18:42:30.015Z,101950.00
2018-06-22T18:45:41.678Z,101942.00
2018-06-22T18:48:53.985Z,101939.00
2018-06-22T18:52:12.130Z,101948.00
2018-06-22T18:55:28.443Z,101941.00
2018-06-22T18:58:44.351Z,101946.00
2018-06-22T19:02:04.984Z,101951.00
2018-06-22T19:05:21.406Z,101951.00
2018-06-22T19:08:32.452Z,101951.00
2018-06-22T19:11:43.351Z,101953.00
2018-06-22T19:14:55.996Z,101948.00
2018-06-22T19:18:08.029Z,101950.00
2018-06-22T19:21:18.942Z,101954.00
2018-06-22T19:24:29.660Z,101957.00
2018-06-22T19:27:43.475Z,101963.00
2018-06-22T19:30:54.043Z,101961.00
2018-06-22T19:34:10.712Z,101966.00
2018-06-22T19:37:21.719Z,101972.00
2018-06-22T19:40:32.244Z,101975.00
2018-06-22T19:43:48.199Z,101983.00
2018-06-22T19:47:04.401Z,101986.00
2018-06-22T19:50:20.623Z,101991.00
2018-06-22T19:53:37.219Z,101992.00
2018-06-22T19:56:53.471Z,101997.00
2018-06-22T20:00:04.091Z,102000.00
2018-06-22T20:03:15.987Z,102003.00
2018-06-22T20:06:27.348Z,102012.00
2018-06-22T20:09:37.983Z,102010.00
2018-06-22T20:12:48.447Z,102017.00
2018-06-22T20:15:59.360Z,102018.00
2018-06-22T20:19:10.910Z,102021.00
2018-06-22T20:22:21.345Z,102023.00
2018-06-22T20:25:36.961Z,102023.00
2018-06-22T20:28:47.555Z,102025.00
2018-06-22T20:31:58.226Z,102030.00
2018-06-22T20:35:16.902Z,102012.00
2018-06-22T20:38:32.704Z,102036.00
2018-06-22T20:41:52.754Z,102032.00
2018-06-22T20:45:08.680Z,102035.00
2018-06-22T20:48:24.635Z,102040.00
2018-06-22T20:51:40.049Z,102043.00
2018-06-22T20:54:50.559Z,102042.00
2018-06-22T20:58:01.067Z,102048.00
2018-06-22T21:01:12.748Z,102044.00
2018-06-22T21:04:23.553Z,102048.00
2018-06-22T21:07:34.280Z,102047.00
2018-06-22T21:10:44.962Z,102047.00
2018-06-22T21:13:55.651Z,102052.00
2018-06-22T21:17:07.143Z,102055.00
2018-06-22T21:20:17.854Z,102052.00
2018-06-22T21:23:28.775Z,102047.00
2018-06-22T21:26:40.434Z,102048.00
2018-06-22T21:29:56.484Z,102053.00
2018-06-22T21:33:12.736Z,102057.00
2018-06-22T21:36:28.773Z,102058.00
2018-06-22T21:39:39.700Z,102057.00
2018-06-22T21:42:51.266Z,102060.00
2018-06-22T21:46:01.861Z,102062.00
2018-06-22T21:49:12.850Z,102060.00
2018-06-22T21:52:23.925Z,102063.00
2018-06-22T21:55:34.557Z,102061.00
2018-06-22T21:58:44.957Z,102061.00
2018-06-22T22:01:56.263Z,102062.00
2018-06-22T22:05:07.479Z,102063.00
2018-06-22T22:08:18.409Z,102068.00
2018-06-22T22:11:34.300Z,102061.00
2018-06-22T22:14:44.827Z,102060.00
2018-06-22T22:17:55.676Z,102064.00
2018-06-22T22:21:06.424Z,102060.00
2018-06-22T22:24:16.795Z,102065.00
2018-06-22T22:27:27.732Z,102064.00
2018-06-22T22:30:39.863Z,102056.00
2018-06-22T22:33:52.909Z,102064.00
2018-06-22T22:37:11.186Z,102060.00
2018-06-22T22:40:25.322Z,102067.00
2018-06-22T22:43:36.186Z,102067.00
2018-06-22T22:46:46.796Z,102061.00
2018-06-22T22:49:57.797Z,102064.00
2018-06-22T22:53:11.505Z,102064.00
2018-06-22T22:56:22.437Z,102061.00
2018-06-22T22:59:33.460Z,102065.00
2018-06-22T23:02:44.104Z,102059.00
2018-06-22T23:05:55.145Z,102059.00
2018-06-22T23:09:07.310Z,102061.00
2018-06-22T23:12:18.491Z,102055.00
2018-06-22T23:15:29.353Z,102057.00
2018-06-22T23:18:39.831Z,102051.00
2018-06-22T23:21:50.632Z,102055.00
2018-06-22T23:25:01.356Z,102065.00
2018-06-22T23:28:12.162Z,102065.00
2018-06-22T23:31:22.908Z,102072.00
2018-06-22T23:34:33.729Z,102067.00
2018-06-22T23:37:44.277Z,102062.00
2018-06-22T23:40:55.828Z,102065.00
2018-06-22T23:44:06.560Z,102063.00
2018-06-22T23:47:23.777Z,102058.00
2018-06-22T23:50:35.857Z,102063.00
2018-06-22T23:53:46.853Z,102058.00
2018-06-22T23:56:57.702Z,102056.00
